Terminal Aerodrome Forecast
Issued by NWS Charleston, WV

Current Version | Previous Version | Text Only | Print | Product List | Glossary Off
Versions: 1 2 3 4 5 6 7 8 9 10 11 12 13 14 15 16 17 18 19 20 21 22 23 24 25 26 27 28

000
FTUS41 KRLX 012112 AAB
TAFBKW
TAF AMD
KBKW 012112Z 0121/0218 00000KT 6SM TSRA BR BKN035CB
      TEMPO 0121/0122 2SM TSRA BR BKN025CB
     FM012200 00000KT 3SM TSRA BR OVC025CB
     FM020100 00000KT 2SM SHRA BR VCTS OVC008CB
     FM020300 VRB03KT 4SM SHRA BR OVC008
     FM020700 00000KT 3SM BR OVC008
     FM020900 00000KT 1/4SM FG VV001
     FM021400 00000KT 1SM BR BKN001
     FM021700 VRB03KT 3SM BR BKN050=

USA.gov is the U.S. government's official web portal to all federal, state and local government web resources and services.